Astor — C6JR3 — position and weather

sailwx.info

Track history (hours):
 
Tides and Currents Weather Stations Pressure Air Temp Water Temp Dewpoint Dewpoint Depression Visibility Wind Speed Wind Dir Waves Ship Positions

Astor

Operator: Passat Ship Management Ltd

Last reported at 2019-Nov-20 08:31 UTC. Time now 2019-Nov-20 09:59 UTC.
Position N 53°32' E 009°57'.

Length 177 m; draft 6.1 m.

Type: Ship. MMSI: 308214000.

Date/timePositionNaut miles runAvg speedWind from/ knotsBaromVisibWave heightAir tempDewpointWater temp
2019-Nov-20 08:31N 53°32' E 009°57'9 8.5
2019-Nov-20 07:31N 53°34' E 009°43'1212.0
2019-Nov-20 06:31N 53°43' E 009°29'2210.8
2019-Nov-20 04:30N 53°51' E 008°55'1211.9
2019-Nov-20 03:30N 53°57' E 008°38'1414.0
2019-Nov-20 02:30N 53°60' E 008°15'10 3.3
2019-Nov-19 23:30N 54°03' E 007°59'23712.5
2019-Nov-19 04:30N 57°38' E 005°02'4116.3
2019-Nov-19 02:00N 58°16' E 004°35'4116.3
2019-Nov-18 23:30N 58°53' E 004°04'1515.2
2019-Nov-18 22:30N 59°09' E 004°06'816.0
2019-Nov-18 22:00N 59°16' E 004°12'816.5
2019-Nov-18 21:30N 59°23' E 004°18'1716.7
2019-Nov-18 20:30N 59°39' E 004°30'816.9
2019-Nov-18 20:00N 59°47' E 004°36'816.3
2019-Nov-18 19:30N 59°54' E 004°43'35 9.9
2019-Nov-18 16:00N 60°24' E 005°18'0 0.6
2019-Nov-18 15:28N 60°24' E 005°19'0 0.0
2019-Nov-18 13:00N 60°24' E 005°19'0 0.0
2019-Nov-18 12:30N 60°24' E 005°19'0 0.0
2019-Nov-18 10:59N 60°24' E 005°19'0 0.0
2019-Nov-18 09:28N 60°24' E 005°19'32 8.1
2019-Nov-18 05:30N 60°46' E 004°32'815.0
2019-Nov-18 05:00N 60°53' E 004°24'1615.8
2019-Nov-18 04:00N 61°09' E 004°19'1515.3
2019-Nov-18 03:00N 61°24' E 004°20'1515.3
2019-Nov-18 02:00N 61°39' E 004°22'1616.1
2019-Nov-18 01:00N 61°54' E 004°33'2315.4
2019-Nov-17 23:30N 62°15' E 004°54'815.7
2019-Nov-17 23:00N 62°22' E 005°03'1514.5
2019-Nov-17 22:00N 62°30' E 005°30'19 9.4
2019-Nov-17 20:00N 62°36' E 006°08'3012.2
2019-Nov-17 17:30N 62°39' E 007°14'714.4
2019-Nov-17 17:00N 62°34' E 007°27'7 0.7
2019-Nov-17 07:30N 62°34' E 007°42'30 9.9
2019-Nov-17 04:30N 62°54' E 006°53'510.3
2019-Nov-17 04:00N 62°59' E 006°53'714.9
2019-Nov-17 03:30N 63°03' E 007°06'19 9.6
2019-Nov-17 01:30N 63°15' E 007°38'6014.9
2019-Nov-16 21:30N 64°11' E 008°26'1616.3
2019-Nov-16 20:29N 64°26' E 008°44'1616.5
2019-Nov-16 19:30N 64°40' E 009°03'816.5
2019-Nov-16 19:00N 64°47' E 009°12'816.5
2019-Nov-16 18:30N 64°54' E 009°21'1616.1
2019-Nov-16 17:30N 65°08' E 009°40'815.8
2019-Nov-16 17:00N 65°15' E 009°49'1515.3
2019-Nov-16 16:00N 65°28' E 010°07'815.6
2019-Nov-16 15:30N 65°35' E 010°17'11914.9
2019-Nov-16 07:30N 67°15' E 013°01'1515.2
2019-Nov-16 06:30N 67°27' E 013°26'4615.4
2019-Nov-16 03:30N 68°03' E 014°43'816.2
2019-Nov-16 03:00N 68°07' E 015°02'816.1
2019-Nov-16 02:30N 68°10' E 015°21'5112.7
2019-Nov-15 22:30N 68°49' E 016°52'3413.8
2019-Nov-15 20:00N 69°14' E 017°57'1010.4
2019-Nov-15 19:00N 69°24' E 018°06'1110.7
2019-Nov-15 18:00N 69°31' E 018°28'13 5.0
2019-Nov-15 15:29N 69°39' E 018°58'0 0.0
2019-Nov-15 13:28N 69°39' E 018°58'0 0.0
2019-Nov-15 12:00N 69°39' E 018°58'0 0.0
2019-Nov-15 09:29N 69°39' E 018°58'0 0.0
2019-Nov-15 08:26N 69°39' E 018°58'0 0.0
2019-Nov-15 06:58N 69°39' E 018°58'12 5.1
2019-Nov-15 04:31N 69°48' E 019°22'1313.0
2019-Nov-15 03:30N 69°55' E 019°53'5515.7
2019-Nov-15 00:00N 70°42' E 021°22'2315.2
2019-Nov-14 22:30N 70°58' E 022°10'4515.1
2019-Nov-14 19:31N 71°11' E 024°23'815.6
2019-Nov-14 19:00N 71°12' E 024°48'816.0
2019-Nov-14 18:30N 71°12' E 025°13'816.0
2019-Nov-14 18:00N 71°12' E 025°38'715.0
2019-Nov-14 17:30N 71°10' E 025°60'11 1.6
2019-Nov-14 10:30N 70°59' E 025°58'17 4.3
2019-Nov-14 06:30N 70°59' E 025°05'2710.9
2019-Nov-14 04:00N 70°48' E 023°49'2311.6
2019-Nov-14 02:00N 70°25' E 023°37'2710.7
2019-Nov-13 23:29N 69°59' E 023°20'0 0.0
2019-Nov-13 21:28N 69°59' E 023°20'0 0.0
2019-Nov-13 20:28N 69°59' E 023°20'0 0.0
2019-Nov-13 18:30N 69°59' E 023°20'0 0.0
2019-Nov-13 18:00N 69°59' E 023°20'0 0.0
2019-Nov-13 15:59N 69°59' E 023°20'0 0.0
2019-Nov-13 14:28N 69°59' E 023°20'0 0.0
2019-Nov-13 13:55N 69°59' E 023°20'0 0.0
2019-Nov-13 12:30N 69°59' E 023°20'0 0.0
2019-Nov-13 11:30N 69°59' E 023°20'0 0.0
2019-Nov-13 09:59N 69°59' E 023°20'0 0.0
2019-Nov-13 09:29N 69°59' E 023°20'5 4.8
2019-Nov-13 08:30N 70°03' E 023°12'3112.5
2019-Nov-13 06:00N 70°22' E 021°59'4013.1
2019-Nov-13 03:00N 70°05' E 020°13'3 5.8
2019-Nov-13 02:30N 70°08' E 020°15'510.6
2019-Nov-13 02:00N 70°13' E 020°22'2210.8
2019-Nov-13 00:00N 70°27' E 019°35'815.8
2019-Nov-12 23:30N 70°25' E 019°13'2416.1
2019-Nov-12 22:00N 70°16' E 018°06'6416.1
2019-Nov-12 18:00N 69°31' E 015°52'4317.0
2019-Nov-12 15:30N 68°60' E 014°29'816.3
2019-Nov-12 15:00N 68°54' E 014°14'1616.2
2019-Nov-12 14:00N 68°42' E 013°43'816.0
2019-Nov-12 13:30N 68°37' E 013°27'816.2
2019-Nov-12 13:00N 68°31' E 013°12'1616.3
2019-Nov-12 12:00N 68°19' E 012°41'816.8
2019-Nov-12 11:30N 68°12' E 012°30'2516.5
2019-Nov-12 10:00N 67°50' E 011°58'1615.9
2019-Nov-12 09:00N 67°36' E 011°41'2416.1
2019-Nov-12 07:30N 67°13' E 011°17'2416.3
2019-Nov-12 06:00N 66°51' E 010°52'4016.1
2019-Nov-12 03:30N 66°13' E 010°14'1616.2
2019-Nov-12 02:30N 65°58' E 009°58'1616.2
2019-Nov-12 01:30N 65°43' E 009°44'2416.3
2019-Nov-12 00:00N 65°21' E 009°21'4116.2
2019-Nov-11 21:30N 64°43' E 008°45'816.3
2019-Nov-11 21:00N 64°35' E 008°38'4116.5
2019-Nov-11 18:30N 63°58' E 008°01'1716.7
2019-Nov-11 17:30N 63°43' E 007°43'816.5
2019-Nov-11 17:01N 63°35' E 007°36'816.4
2019-Nov-11 16:30N 63°27' E 007°30'1912.9
2019-Nov-11 15:00N 63°09' E 007°42'2 1.2
2019-Nov-11 12:58N 63°07' E 007°44'0 0.0
2019-Nov-11 11:58N 63°07' E 007°44'0 0.0
2019-Nov-11 10:30N 63°07' E 007°44'0 0.0
2019-Nov-11 08:59N 63°07' E 007°44'5 1.8
2019-Nov-11 06:00N 63°12' E 007°45'612.3
2019-Nov-11 05:31N 63°15' E 007°34'2813.8
2019-Nov-11 03:30N 63°04' E 006°38'1515.4
2019-Nov-11 02:30N 62°55' E 006°11'815.2
2019-Nov-11 02:00N 62°50' E 005°58'1515.2
2019-Nov-11 01:00N 62°39' E 005°35'815.0
2019-Nov-11 00:30N 62°33' E 005°24'1515.3
2019-Nov-10 23:30N 62°22' E 005°02'1615.7
2019-Nov-10 22:30N 62°08' E 004°47'2013.5
2019-Nov-10 21:00N 61°54' E 005°19'3514.2
2019-Nov-10 18:31N 61°51' E 006°33'11 1.2
2019-Nov-10 09:00N 61°51' E 006°09'  
Track history (hours):
 
Tides and Currents Weather Stations Pressure Air Temp Water Temp Dewpoint Dewpoint Depression Visibility Wind Speed Wind Dir Waves Ship Positions

Astor

Operator: Passat Ship Management Ltd

Last reported at 2019-Nov-20 08:31 UTC. Time now 2019-Nov-20 09:59 UTC.
Position N 53°32' E 009°57'.

Length 177 m; draft 6.1 m.

Type: Ship. MMSI: 308214000.

Date/timePositionNaut miles runAvg speedWind from/ knotsBaromVisibWave heightAir tempDewpointWater temp
2019-Nov-20 08:31N 53°32' E 009°57'9 8.5
2019-Nov-20 07:31N 53°34' E 009°43'1212.0
2019-Nov-20 06:31N 53°43' E 009°29'2210.8
2019-Nov-20 04:30N 53°51' E 008°55'1211.9
2019-Nov-20 03:30N 53°57' E 008°38'1414.0
2019-Nov-20 02:30N 53°60' E 008°15'10 3.3
2019-Nov-19 23:30N 54°03' E 007°59'23712.5
2019-Nov-19 04:30N 57°38' E 005°02'4116.3
2019-Nov-19 02:00N 58°16' E 004°35'4116.3
2019-Nov-18 23:30N 58°53' E 004°04'1515.2
2019-Nov-18 22:30N 59°09' E 004°06'816.0
2019-Nov-18 22:00N 59°16' E 004°12'816.5
2019-Nov-18 21:30N 59°23' E 004°18'1716.7
2019-Nov-18 20:30N 59°39' E 004°30'816.9
2019-Nov-18 20:00N 59°47' E 004°36'816.3
2019-Nov-18 19:30N 59°54' E 004°43'35 9.9
2019-Nov-18 16:00N 60°24' E 005°18'0 0.6
2019-Nov-18 15:28N 60°24' E 005°19'0 0.0
2019-Nov-18 13:00N 60°24' E 005°19'0 0.0
2019-Nov-18 12:30N 60°24' E 005°19'0 0.0
2019-Nov-18 10:59N 60°24' E 005°19'0 0.0
2019-Nov-18 09:28N 60°24' E 005°19'32 8.1
2019-Nov-18 05:30N 60°46' E 004°32'815.0
2019-Nov-18 05:00N 60°53' E 004°24'1615.8
2019-Nov-18 04:00N 61°09' E 004°19'1515.3
2019-Nov-18 03:00N 61°24' E 004°20'1515.3
2019-Nov-18 02:00N 61°39' E 004°22'1616.1
2019-Nov-18 01:00N 61°54' E 004°33'2315.4
2019-Nov-17 23:30N 62°15' E 004°54'815.7
2019-Nov-17 23:00N 62°22' E 005°03'1514.5
2019-Nov-17 22:00N 62°30' E 005°30'19 9.4
2019-Nov-17 20:00N 62°36' E 006°08'3012.2
2019-Nov-17 17:30N 62°39' E 007°14'714.4
2019-Nov-17 17:00N 62°34' E 007°27'7 0.7
2019-Nov-17 07:30N 62°34' E 007°42'30 9.9
2019-Nov-17 04:30N 62°54' E 006°53'510.3
2019-Nov-17 04:00N 62°59' E 006°53'714.9
2019-Nov-17 03:30N 63°03' E 007°06'19 9.6
2019-Nov-17 01:30N 63°15' E 007°38'6014.9
2019-Nov-16 21:30N 64°11' E 008°26'1616.3
2019-Nov-16 20:29N 64°26' E 008°44'1616.5
2019-Nov-16 19:30N 64°40' E 009°03'816.5
2019-Nov-16 19:00N 64°47' E 009°12'816.5
2019-Nov-16 18:30N 64°54' E 009°21'1616.1
2019-Nov-16 17:30N 65°08' E 009°40'815.8
2019-Nov-16 17:00N 65°15' E 009°49'1515.3
2019-Nov-16 16:00N 65°28' E 010°07'815.6
2019-Nov-16 15:30N 65°35' E 010°17'11914.9
2019-Nov-16 07:30N 67°15' E 013°01'1515.2
2019-Nov-16 06:30N 67°27' E 013°26'4615.4
2019-Nov-16 03:30N 68°03' E 014°43'816.2
2019-Nov-16 03:00N 68°07' E 015°02'816.1
2019-Nov-16 02:30N 68°10' E 015°21'5112.7
2019-Nov-15 22:30N 68°49' E 016°52'3413.8
2019-Nov-15 20:00N 69°14' E 017°57'1010.4
2019-Nov-15 19:00N 69°24' E 018°06'1110.7
2019-Nov-15 18:00N 69°31' E 018°28'13 5.0
2019-Nov-15 15:29N 69°39' E 018°58'0 0.0
2019-Nov-15 13:28N 69°39' E 018°58'0 0.0
2019-Nov-15 12:00N 69°39' E 018°58'0 0.0
2019-Nov-15 09:29N 69°39' E 018°58'0 0.0
2019-Nov-15 08:26N 69°39' E 018°58'0 0.0
2019-Nov-15 06:58N 69°39' E 018°58'12 5.1
2019-Nov-15 04:31N 69°48' E 019°22'1313.0
2019-Nov-15 03:30N 69°55' E 019°53'5515.7
2019-Nov-15 00:00N 70°42' E 021°22'2315.2
2019-Nov-14 22:30N 70°58' E 022°10'4515.1
2019-Nov-14 19:31N 71°11' E 024°23'815.6
2019-Nov-14 19:00N 71°12' E 024°48'816.0
2019-Nov-14 18:30N 71°12' E 025°13'816.0
2019-Nov-14 18:00N 71°12' E 025°38'715.0
2019-Nov-14 17:30N 71°10' E 025°60'11 1.6
2019-Nov-14 10:30N 70°59' E 025°58'17 4.3
2019-Nov-14 06:30N 70°59' E 025°05'2710.9
2019-Nov-14 04:00N 70°48' E 023°49'2311.6
2019-Nov-14 02:00N 70°25' E 023°37'2710.7
2019-Nov-13 23:29N 69°59' E 023°20'0 0.0
2019-Nov-13 21:28N 69°59' E 023°20'0 0.0
2019-Nov-13 20:28N 69°59' E 023°20'0 0.0
2019-Nov-13 18:30N 69°59' E 023°20'0 0.0
2019-Nov-13 18:00N 69°59' E 023°20'0 0.0
2019-Nov-13 15:59N 69°59' E 023°20'0 0.0
2019-Nov-13 14:28N 69°59' E 023°20'0 0.0
2019-Nov-13 13:55N 69°59' E 023°20'0 0.0
2019-Nov-13 12:30N 69°59' E 023°20'0 0.0
2019-Nov-13 11:30N 69°59' E 023°20'0 0.0
2019-Nov-13 09:59N 69°59' E 023°20'0 0.0
2019-Nov-13 09:29N 69°59' E 023°20'5 4.8
2019-Nov-13 08:30N 70°03' E 023°12'3112.5
2019-Nov-13 06:00N 70°22' E 021°59'4013.1
2019-Nov-13 03:00N 70°05' E 020°13'3 5.8
2019-Nov-13 02:30N 70°08' E 020°15'510.6
2019-Nov-13 02:00N 70°13' E 020°22'2210.8
2019-Nov-13 00:00N 70°27' E 019°35'815.8
2019-Nov-12 23:30N 70°25' E 019°13'2416.1
2019-Nov-12 22:00N 70°16' E 018°06'6416.1
2019-Nov-12 18:00N 69°31' E 015°52'4317.0
2019-Nov-12 15:30N 68°60' E 014°29'816.3
2019-Nov-12 15:00N 68°54' E 014°14'1616.2
2019-Nov-12 14:00N 68°42' E 013°43'816.0
2019-Nov-12 13:30N 68°37' E 013°27'816.2
2019-Nov-12 13:00N 68°31' E 013°12'1616.3
2019-Nov-12 12:00N 68°19' E 012°41'816.8
2019-Nov-12 11:30N 68°12' E 012°30'2516.5
2019-Nov-12 10:00N 67°50' E 011°58'1615.9
2019-Nov-12 09:00N 67°36' E 011°41'2416.1
2019-Nov-12 07:30N 67°13' E 011°17'2416.3
2019-Nov-12 06:00N 66°51' E 010°52'4016.1
2019-Nov-12 03:30N 66°13' E 010°14'1616.2
2019-Nov-12 02:30N 65°58' E 009°58'1616.2
2019-Nov-12 01:30N 65°43' E 009°44'2416.3
2019-Nov-12 00:00N 65°21' E 009°21'4116.2
2019-Nov-11 21:30N 64°43' E 008°45'816.3
2019-Nov-11 21:00N 64°35' E 008°38'4116.5
2019-Nov-11 18:30N 63°58' E 008°01'1716.7
2019-Nov-11 17:30N 63°43' E 007°43'816.5
2019-Nov-11 17:01N 63°35' E 007°36'816.4
2019-Nov-11 16:30N 63°27' E 007°30'1912.9
2019-Nov-11 15:00N 63°09' E 007°42'2 1.2
2019-Nov-11 12:58N 63°07' E 007°44'0 0.0
2019-Nov-11 11:58N 63°07' E 007°44'0 0.0
2019-Nov-11 10:30N 63°07' E 007°44'0 0.0
2019-Nov-11 08:59N 63°07' E 007°44'5 1.8
2019-Nov-11 06:00N 63°12' E 007°45'612.3
2019-Nov-11 05:31N 63°15' E 007°34'2813.8
2019-Nov-11 03:30N 63°04' E 006°38'1515.4
2019-Nov-11 02:30N 62°55' E 006°11'815.2
2019-Nov-11 02:00N 62°50' E 005°58'1515.2
2019-Nov-11 01:00N 62°39' E 005°35'815.0
2019-Nov-11 00:30N 62°33' E 005°24'1515.3
2019-Nov-10 23:30N 62°22' E 005°02'1615.7
2019-Nov-10 22:30N 62°08' E 004°47'2013.5
2019-Nov-10 21:00N 61°54' E 005°19'3514.2
2019-Nov-10 18:31N 61°51' E 006°33'11 1.2
2019-Nov-10 09:00N 61°51' E 006°09'  

Dump ship's entire track history